sensor_id;sensor_type;location;lat;lon;timestamp;temperature;humidity
17364;DHT22;8799;43.594;13.526;2023-05-10T00:01:37;21.40;99.90
17364;DHT22;8799;43.594;13.526;2023-05-10T00:04:14;21.40;99.90
17364;DHT22;8799;43.594;13.526;2023-05-10T00:06:44;21.40;99.90
17364;DHT22;8799;43.594;13.526;2023-05-10T00:09:13;21.40;99.90
17364;DHT22;8799;43.594;13.526;2023-05-10T00:11:41;21.40;99.90
17364;DHT22;8799;43.594;13.526;2023-05-10T00:14:10;21.40;99.90
17364;DHT22;8799;43.594;13.526;2023-05-10T00:16:38;21.40;99.90
17364;DHT22;8799;43.594;13.526;2023-05-10T00:19:06;21.40;99.90
17364;DHT22;8799;43.594;13.526;2023-05-10T00:21:34;21.40;99.90
17364;DHT22;8799;43.594;13.526;2023-05-10T00:24:03;21.40;99.90
17364;DHT22;8799;43.594;13.526;2023-05-10T00:26:31;21.40;99.90
17364;DHT22;8799;43.594;13.526;2023-05-10T00:28:59;21.40;99.90
17364;DHT22;8799;43.594;13.526;2023-05-10T00:31:28;21.40;99.90
17364;DHT22;8799;43.594;13.526;2023-05-10T00:33:56;21.40;99.90
17364;DHT22;8799;43.594;13.526;2023-05-10T00:36:24;21.40;99.90
17364;DHT22;8799;43.594;13.526;2023-05-10T00:38:51;21.40;99.90
17364;DHT22;8799;43.594;13.526;2023-05-10T00:41:19;21.40;99.90
17364;DHT22;8799;43.594;13.526;2023-05-10T00:43:48;21.40;99.90
17364;DHT22;8799;43.594;13.526;2023-05-10T00:46:16;21.40;99.90
17364;DHT22;8799;43.594;13.526;2023-05-10T00:48:46;21.40;99.90
17364;DHT22;8799;43.594;13.526;2023-05-10T00:51:14;21.40;99.90
17364;DHT22;8799;43.594;13.526;2023-05-10T00:53:43;21.40;99.90
17364;DHT22;8799;43.594;13.526;2023-05-10T00:56:11;21.40;99.90
17364;DHT22;8799;43.594;13.526;2023-05-10T00:58:39;21.40;99.90
17364;DHT22;8799;43.594;13.526;2023-05-10T01:01:07;21.40;99.90
17364;DHT22;8799;43.594;13.526;2023-05-10T01:03:35;21.40;99.90
17364;DHT22;8799;43.594;13.526;2023-05-10T01:06:06;21.40;99.90
17364;DHT22;8799;43.594;13.526;2023-05-10T01:08:35;21.50;99.90
17364;DHT22;8799;43.594;13.526;2023-05-10T01:11:02;21.40;99.90
17364;DHT22;8799;43.594;13.526;2023-05-10T01:13:33;21.40;99.90
17364;DHT22;8799;43.594;13.526;2023-05-10T01:16:03;21.40;99.90
17364;DHT22;8799;43.594;13.526;2023-05-10T01:18:34;21.50;99.90
17364;DHT22;8799;43.594;13.526;2023-05-10T01:21:14;21.40;99.90
17364;DHT22;8799;43.594;13.526;2023-05-10T01:24:00;21.40;99.90
17364;DHT22;8799;43.594;13.526;2023-05-10T01:26:57;21.40;99.90
17364;DHT22;8799;43.594;13.526;2023-05-10T01:29:47;21.40;99.90
17364;DHT22;8799;43.594;13.526;2023-05-10T01:32:27;21.40;99.90
17364;DHT22;8799;43.594;13.526;2023-05-10T01:35:02;21.40;99.90
17364;DHT22;8799;43.594;13.526;2023-05-10T01:37:36;21.40;99.90
17364;DHT22;8799;43.594;13.526;2023-05-10T01:40:16;21.40;99.90
17364;DHT22;8799;43.594;13.526;2023-05-10T01:42:50;21.40;99.90
17364;DHT22;8799;43.594;13.526;2023-05-10T01:45:25;21.40;99.90
17364;DHT22;8799;43.594;13.526;2023-05-10T01:48:03;21.40;99.90
17364;DHT22;8799;43.594;13.526;2023-05-10T01:50:32;21.40;99.90
17364;DHT22;8799;43.594;13.526;2023-05-10T01:53:02;21.40;99.90
17364;DHT22;8799;43.594;13.526;2023-05-10T01:55:34;21.40;99.90
17364;DHT22;8799;43.594;13.526;2023-05-10T01:58:06;21.40;99.90
17364;DHT22;8799;43.594;13.526;2023-05-10T02:00:35;21.40;99.90
17364;DHT22;8799;43.594;13.526;2023-05-10T02:03:07;21.40;99.90
17364;DHT22;8799;43.594;13.526;2023-05-10T02:05:37;21.40;99.90
17364;DHT22;8799;43.594;13.526;2023-05-10T02:08:06;21.40;99.90
17364;DHT22;8799;43.594;13.526;2023-05-10T02:10:35;21.40;99.90
17364;DHT22;8799;43.594;13.526;2023-05-10T02:13:04;21.40;99.90
17364;DHT22;8799;43.594;13.526;2023-05-10T02:15:34;21.40;99.90
17364;DHT22;8799;43.594;13.526;2023-05-10T02:18:06;21.40;99.90
17364;DHT22;8799;43.594;13.526;2023-05-10T02:20:36;21.40;99.90
17364;DHT22;8799;43.594;13.526;2023-05-10T02:23:05;21.40;99.90
17364;DHT22;8799;43.594;13.526;2023-05-10T02:25:34;21.40;99.90
17364;DHT22;8799;43.594;13.526;2023-05-10T02:28:04;21.40;99.90
17364;DHT22;8799;43.594;13.526;2023-05-10T02:30:33;21.40;99.90
17364;DHT22;8799;43.594;13.526;2023-05-10T02:33:02;21.40;99.90
17364;DHT22;8799;43.594;13.526;2023-05-10T02:35:34;21.50;99.90
17364;DHT22;8799;43.594;13.526;2023-05-10T02:38:02;21.40;99.90
17364;DHT22;8799;43.594;13.526;2023-05-10T02:40:31;21.40;99.90
17364;DHT22;8799;43.594;13.526;2023-05-10T02:43:01;21.40;99.90
17364;DHT22;8799;43.594;13.526;2023-05-10T02:45:31;21.40;99.90
17364;DHT22;8799;43.594;13.526;2023-05-10T02:48:00;21.40;99.90
17364;DHT22;8799;43.594;13.526;2023-05-10T02:50:28;21.40;99.90
17364;DHT22;8799;43.594;13.526;2023-05-10T02:53:03;21.40;99.90
17364;DHT22;8799;43.594;13.526;2023-05-10T02:55:37;21.40;99.90
17364;DHT22;8799;43.594;13.526;2023-05-10T02:58:06;21.40;99.90
17364;DHT22;8799;43.594;13.526;2023-05-10T03:00:34;21.40;99.90
17364;DHT22;8799;43.594;13.526;2023-05-10T03:03:01;21.40;99.90
17364;DHT22;8799;43.594;13.526;2023-05-10T03:05:30;21.50;99.90
17364;DHT22;8799;43.594;13.526;2023-05-10T03:08:00;21.50;99.90
17364;DHT22;8799;43.594;13.526;2023-05-10T03:10:30;21.50;99.90
17364;DHT22;8799;43.594;13.526;2023-05-10T03:13:07;21.40;99.90
17364;DHT22;8799;43.594;13.526;2023-05-10T03:15:45;21.50;99.90
17364;DHT22;8799;43.594;13.526;2023-05-10T03:18:21;21.50;99.90
17364;DHT22;8799;43.594;13.526;2023-05-10T03:20:51;21.50;99.90
17364;DHT22;8799;43.594;13.526;2023-05-10T03:23:25;21.40;99.90
17364;DHT22;8799;43.594;13.526;2023-05-10T03:25:55;21.50;99.90
17364;DHT22;8799;43.594;13.526;2023-05-10T03:28:25;21.50;99.90
17364;DHT22;8799;43.594;13.526;2023-05-10T03:30:54;21.50;99.90
17364;DHT22;8799;43.594;13.526;2023-05-10T03:33:22;21.50;99.90
17364;DHT22;8799;43.594;13.526;2023-05-10T03:35:51;21.50;99.90
17364;DHT22;8799;43.594;13.526;2023-05-10T03:38:18;21.40;99.90
17364;DHT22;8799;43.594;13.526;2023-05-10T03:40:49;21.50;99.90
17364;DHT22;8799;43.594;13.526;2023-05-10T03:43:17;21.40;99.90
17364;DHT22;8799;43.594;13.526;2023-05-10T03:45:45;21.50;99.90
17364;DHT22;8799;43.594;13.526;2023-05-10T03:48:13;21.40;99.90
17364;DHT22;8799;43.594;13.526;2023-05-10T03:50:40;21.40;99.90
17364;DHT22;8799;43.594;13.526;2023-05-10T03:53:08;21.50;99.90
17364;DHT22;8799;43.594;13.526;2023-05-10T03:55:36;21.50;99.90
17364;DHT22;8799;43.594;13.526;2023-05-10T03:58:06;21.40;99.90
17364;DHT22;8799;43.594;13.526;2023-05-10T04:00:33;21.40;99.90
17364;DHT22;8799;43.594;13.526;2023-05-10T04:03:01;21.50;99.90
17364;DHT22;8799;43.594;13.526;2023-05-10T04:05:29;21.50;99.90
17364;DHT22;8799;43.594;13.526;2023-05-10T04:07:57;21.50;99.90
17364;DHT22;8799;43.594;13.526;2023-05-10T04:10:25;21.50;99.90
17364;DHT22;8799;43.594;13.526;2023-05-10T04:12:54;21.50;99.90
17364;DHT22;8799;43.594;13.526;2023-05-10T04:15:24;21.50;99.90
17364;DHT22;8799;43.594;13.526;2023-05-10T04:17:52;21.50;99.90
17364;DHT22;8799;43.594;13.526;2023-05-10T04:20:20;21.50;99.90
17364;DHT22;8799;43.594;13.526;2023-05-10T04:22:48;21.50;99.90
17364;DHT22;8799;43.594;13.526;2023-05-10T04:25:16;21.50;99.90
17364;DHT22;8799;43.594;13.526;2023-05-10T04:27:44;21.40;99.90
17364;DHT22;8799;43.594;13.526;2023-05-10T04:30:12;21.50;99.90
17364;DHT22;8799;43.594;13.526;2023-05-10T04:32:42;21.40;99.90
17364;DHT22;8799;43.594;13.526;2023-05-10T04:35:10;21.40;99.90
17364;DHT22;8799;43.594;13.526;2023-05-10T04:37:37;21.40;99.90
17364;DHT22;8799;43.594;13.526;2023-05-10T04:40:08;21.40;99.90
17364;DHT22;8799;43.594;13.526;2023-05-10T04:42:36;21.40;99.90
17364;DHT22;8799;43.594;13.526;2023-05-10T04:45:05;21.40;99.90
17364;DHT22;8799;43.594;13.526;2023-05-10T04:47:33;21.40;99.90
17364;DHT22;8799;43.594;13.526;2023-05-10T04:50:03;21.40;99.90
17364;DHT22;8799;43.594;13.526;2023-05-10T04:52:31;21.40;99.90
17364;DHT22;8799;43.594;13.526;2023-05-10T04:54:59;21.40;99.90
17364;DHT22;8799;43.594;13.526;2023-05-10T04:57:27;21.40;99.90
17364;DHT22;8799;43.594;13.526;2023-05-10T04:59:55;21.40;99.90
17364;DHT22;8799;43.594;13.526;2023-05-10T05:02:24;21.40;99.90
17364;DHT22;8799;43.594;13.526;2023-05-10T05:04:52;21.40;99.90
17364;DHT22;8799;43.594;13.526;2023-05-10T05:07:21;21.40;99.90
17364;DHT22;8799;43.594;13.526;2023-05-10T05:09:49;21.40;99.90
17364;DHT22;8799;43.594;13.526;2023-05-10T05:12:17;21.30;99.90
17364;DHT22;8799;43.594;13.526;2023-05-10T05:14:45;21.30;99.90
17364;DHT22;8799;43.594;13.526;2023-05-10T05:17:13;21.30;99.90
17364;DHT22;8799;43.594;13.526;2023-05-10T05:19:41;21.40;99.90
17364;DHT22;8799;43.594;13.526;2023-05-10T05:22:08;21.40;99.90
17364;DHT22;8799;43.594;13.526;2023-05-10T05:24:38;21.40;99.90
17364;DHT22;8799;43.594;13.526;2023-05-10T05:27:06;21.40;99.90
17364;DHT22;8799;43.594;13.526;2023-05-10T05:29:34;21.40;99.90
17364;DHT22;8799;43.594;13.526;2023-05-10T05:32:02;21.40;99.90
17364;DHT22;8799;43.594;13.526;2023-05-10T05:34:30;21.40;99.90
17364;DHT22;8799;43.594;13.526;2023-05-10T05:36:58;21.40;99.90
17364;DHT22;8799;43.594;13.526;2023-05-10T05:39:26;21.40;99.90
17364;DHT22;8799;43.594;13.526;2023-05-10T05:41:55;21.40;99.90
17364;DHT22;8799;43.594;13.526;2023-05-10T05:44:24;21.50;99.90
17364;DHT22;8799;43.594;13.526;2023-05-10T05:46:52;21.50;99.90
17364;DHT22;8799;43.594;13.526;2023-05-10T05:49:20;21.50;99.90
17364;DHT22;8799;43.594;13.526;2023-05-10T05:51:48;21.50;99.90
17364;DHT22;8799;43.594;13.526;2023-05-10T05:54:16;21.50;99.90
17364;DHT22;8799;43.594;13.526;2023-05-10T05:56:44;21.50;99.90
17364;DHT22;8799;43.594;13.526;2023-05-10T05:59:14;21.50;99.90
17364;DHT22;8799;43.594;13.526;2023-05-10T06:01:42;21.50;99.90
17364;DHT22;8799;43.594;13.526;2023-05-10T06:04:10;21.50;99.90
17364;DHT22;8799;43.594;13.526;2023-05-10T06:06:38;21.50;99.90
17364;DHT22;8799;43.594;13.526;2023-05-10T06:09:06;21.50;99.90
17364;DHT22;8799;43.594;13.526;2023-05-10T06:11:34;21.50;99.90
17364;DHT22;8799;43.594;13.526;2023-05-10T06:14:03;21.50;99.90
17364;DHT22;8799;43.594;13.526;2023-05-10T06:16:34;21.50;99.90
17364;DHT22;8799;43.594;13.526;2023-05-10T06:19:02;21.50;99.90
17364;DHT22;8799;43.594;13.526;2023-05-10T06:21:30;21.50;99.90
17364;DHT22;8799;43.594;13.526;2023-05-10T06:23:58;21.50;99.90
17364;DHT22;8799;43.594;13.526;2023-05-10T06:26:26;21.50;99.90
17364;DHT22;8799;43.594;13.526;2023-05-10T06:28:54;21.50;99.90
17364;DHT22;8799;43.594;13.526;2023-05-10T06:31:22;21.50;99.90
17364;DHT22;8799;43.594;13.526;2023-05-10T06:33:52;21.50;99.90
17364;DHT22;8799;43.594;13.526;2023-05-10T06:36:20;21.50;99.90
17364;DHT22;8799;43.594;13.526;2023-05-10T06:38:47;21.50;99.90
17364;DHT22;8799;43.594;13.526;2023-05-10T06:41:15;21.50;99.90
17364;DHT22;8799;43.594;13.526;2023-05-10T06:43:42;21.50;99.90
17364;DHT22;8799;43.594;13.526;2023-05-10T06:46:10;21.50;99.90
17364;DHT22;8799;43.594;13.526;2023-05-10T06:48:38;21.50;99.90
17364;DHT22;8799;43.594;13.526;2023-05-10T06:51:08;21.50;99.90
17364;DHT22;8799;43.594;13.526;2023-05-10T06:53:36;21.50;99.90
17364;DHT22;8799;43.594;13.526;2023-05-10T06:56:04;21.40;99.90
17364;DHT22;8799;43.594;13.526;2023-05-10T06:58:32;21.50;99.90
17364;DHT22;8799;43.594;13.526;2023-05-10T07:01:03;21.40;99.90
17364;DHT22;8799;43.594;13.526;2023-05-10T07:03:31;21.40;99.90
17364;DHT22;8799;43.594;13.526;2023-05-10T07:06:02;21.40;99.90
17364;DHT22;8799;43.594;13.526;2023-05-10T07:08:32;21.40;99.90
17364;DHT22;8799;43.594;13.526;2023-05-10T07:11:02;21.40;99.90
17364;DHT22;8799;43.594;13.526;2023-05-10T07:13:30;21.40;99.90
17364;DHT22;8799;43.594;13.526;2023-05-10T07:15:58;21.40;99.90
17364;DHT22;8799;43.594;13.526;2023-05-10T07:18:26;21.40;99.90
17364;DHT22;8799;43.594;13.526;2023-05-10T07:20:53;21.40;99.90
17364;DHT22;8799;43.594;13.526;2023-05-10T07:23:21;21.40;99.90
17364;DHT22;8799;43.594;13.526;2023-05-10T07:25:51;21.40;99.90
17364;DHT22;8799;43.594;13.526;2023-05-10T07:28:19;21.40;99.90
17364;DHT22;8799;43.594;13.526;2023-05-10T07:30:48;21.40;99.90
17364;DHT22;8799;43.594;13.526;2023-05-10T07:33:16;21.40;99.90
17364;DHT22;8799;43.594;13.526;2023-05-10T07:35:43;21.40;99.90
17364;DHT22;8799;43.594;13.526;2023-05-10T07:38:12;21.40;99.90
17364;DHT22;8799;43.594;13.526;2023-05-10T07:40:39;21.40;99.90
17364;DHT22;8799;43.594;13.526;2023-05-10T07:43:09;21.40;99.90
17364;DHT22;8799;43.594;13.526;2023-05-10T07:45:37;21.40;99.90
17364;DHT22;8799;43.594;13.526;2023-05-10T07:48:04;21.40;99.90
17364;DHT22;8799;43.594;13.526;2023-05-10T07:50:33;21.40;99.90
17364;DHT22;8799;43.594;13.526;2023-05-10T07:53:01;21.40;99.90
17364;DHT22;8799;43.594;13.526;2023-05-10T07:55:29;21.40;99.90
17364;DHT22;8799;43.594;13.526;2023-05-10T07:57:57;21.40;99.90
17364;DHT22;8799;43.594;13.526;2023-05-10T08:00:28;21.40;99.90
17364;DHT22;8799;43.594;13.526;2023-05-10T08:02:56;21.40;99.90
17364;DHT22;8799;43.594;13.526;2023-05-10T08:05:24;21.40;99.90
17364;DHT22;8799;43.594;13.526;2023-05-10T08:07:52;21.30;99.90
17364;DHT22;8799;43.594;13.526;2023-05-10T08:10:20;21.30;99.90
17364;DHT22;8799;43.594;13.526;2023-05-10T08:12:48;21.30;99.90
17364;DHT22;8799;43.594;13.526;2023-05-10T08:15:16;21.30;99.90
17364;DHT22;8799;43.594;13.526;2023-05-10T08:17:46;21.30;99.90
17364;DHT22;8799;43.594;13.526;2023-05-10T08:20:14;21.30;99.90
17364;DHT22;8799;43.594;13.526;2023-05-10T08:22:45;21.40;99.90
17364;DHT22;8799;43.594;13.526;2023-05-10T08:25:13;21.30;99.90
17364;DHT22;8799;43.594;13.526;2023-05-10T08:27:40;21.30;99.90
17364;DHT22;8799;43.594;13.526;2023-05-10T08:30:09;21.30;99.90
17364;DHT22;8799;43.594;13.526;2023-05-10T08:32:38;21.30;99.90
17364;DHT22;8799;43.594;13.526;2023-05-10T08:35:08;21.30;99.90
17364;DHT22;8799;43.594;13.526;2023-05-10T08:37:35;21.30;99.90
17364;DHT22;8799;43.594;13.526;2023-05-10T08:40:04;21.30;99.90
17364;DHT22;8799;43.594;13.526;2023-05-10T08:42:34;21.30;99.90
17364;DHT22;8799;43.594;13.526;2023-05-10T08:45:05;21.30;99.90
17364;DHT22;8799;43.594;13.526;2023-05-10T08:47:34;21.30;99.90
17364;DHT22;8799;43.594;13.526;2023-05-10T08:50:04;21.30;99.90
17364;DHT22;8799;43.594;13.526;2023-05-10T08:52:37;21.30;99.90
17364;DHT22;8799;43.594;13.526;2023-05-10T08:55:06;21.30;99.90
17364;DHT22;8799;43.594;13.526;2023-05-10T08:57:36;21.30;99.90
17364;DHT22;8799;43.594;13.526;2023-05-10T09:00:06;21.30;99.90
17364;DHT22;8799;43.594;13.526;2023-05-10T09:02:36;21.30;99.90
17364;DHT22;8799;43.594;13.526;2023-05-10T09:05:05;21.30;99.90
17364;DHT22;8799;43.594;13.526;2023-05-10T09:07:34;21.30;99.90
17364;DHT22;8799;43.594;13.526;2023-05-10T09:10:04;21.30;99.90
17364;DHT22;8799;43.594;13.526;2023-05-10T09:12:31;21.30;99.90
17364;DHT22;8799;43.594;13.526;2023-05-10T09:15:00;21.30;99.90
17364;DHT22;8799;43.594;13.526;2023-05-10T09:17:30;21.30;99.90
17364;DHT22;8799;43.594;13.526;2023-05-10T09:19:59;21.30;99.90
17364;DHT22;8799;43.594;13.526;2023-05-10T09:22:27;21.30;99.90
17364;DHT22;8799;43.594;13.526;2023-05-10T09:25:08;21.30;99.90
17364;DHT22;8799;43.594;13.526;2023-05-10T09:27:37;21.30;99.90
17364;DHT22;8799;43.594;13.526;2023-05-10T09:30:06;21.30;99.90
17364;DHT22;8799;43.594;13.526;2023-05-10T09:32:39;21.30;99.90
17364;DHT22;8799;43.594;13.526;2023-05-10T09:35:10;21.30;99.90
17364;DHT22;8799;43.594;13.526;2023-05-10T09:37:39;21.30;99.90
17364;DHT22;8799;43.594;13.526;2023-05-10T09:40:14;21.30;99.90
17364;DHT22;8799;43.594;13.526;2023-05-10T09:42:51;21.30;99.90
17364;DHT22;8799;43.594;13.526;2023-05-10T09:45:20;21.30;99.90
17364;DHT22;8799;43.594;13.526;2023-05-10T09:47:49;21.30;99.90
17364;DHT22;8799;43.594;13.526;2023-05-10T09:50:17;21.30;99.90
17364;DHT22;8799;43.594;13.526;2023-05-10T09:52:47;21.20;99.90
17364;DHT22;8799;43.594;13.526;2023-05-10T09:55:19;21.30;99.90
17364;DHT22;8799;43.594;13.526;2023-05-10T09:57:47;21.20;99.90
17364;DHT22;8799;43.594;13.526;2023-05-10T10:00:19;21.20;99.90
17364;DHT22;8799;43.594;13.526;2023-05-10T10:02:55;21.20;99.90
17364;DHT22;8799;43.594;13.526;2023-05-10T10:05:28;21.20;99.90
17364;DHT22;8799;43.594;13.526;2023-05-10T10:07:57;21.20;99.90
17364;DHT22;8799;43.594;13.526;2023-05-10T10:10:27;21.20;99.90
17364;DHT22;8799;43.594;13.526;2023-05-10T10:12:55;21.20;99.90
17364;DHT22;8799;43.594;13.526;2023-05-10T10:15:24;21.20;99.90
17364;DHT22;8799;43.594;13.526;2023-05-10T10:17:53;21.20;99.90
17364;DHT22;8799;43.594;13.526;2023-05-10T10:20:22;21.20;99.90
17364;DHT22;8799;43.594;13.526;2023-05-10T10:22:50;21.20;99.90
17364;DHT22;8799;43.594;13.526;2023-05-10T10:25:19;21.20;99.90
17364;DHT22;8799;43.594;13.526;2023-05-10T10:28:04;21.20;99.90
17364;DHT22;8799;43.594;13.526;2023-05-10T10:30:39;21.20;99.90
17364;DHT22;8799;43.594;13.526;2023-05-10T10:33:27;21.20;99.90
17364;DHT22;8799;43.594;13.526;2023-05-10T10:35:59;21.20;99.90
17364;DHT22;8799;43.594;13.526;2023-05-10T10:38:36;21.20;99.90
17364;DHT22;8799;43.594;13.526;2023-05-10T10:41:10;21.20;99.90
17364;DHT22;8799;43.594;13.526;2023-05-10T10:43:39;21.20;99.90
17364;DHT22;8799;43.594;13.526;2023-05-10T10:46:11;21.20;99.90
17364;DHT22;8799;43.594;13.526;2023-05-10T10:48:41;21.20;99.90
17364;DHT22;8799;43.594;13.526;2023-05-10T10:51:14;21.20;99.90
17364;DHT22;8799;43.594;13.526;2023-05-10T10:53:48;21.20;99.90
17364;DHT22;8799;43.594;13.526;2023-05-10T10:56:22;21.20;99.90
17364;DHT22;8799;43.594;13.526;2023-05-10T10:58:52;21.20;99.90
17364;DHT22;8799;43.594;13.526;2023-05-10T11:01:20;21.20;99.90
17364;DHT22;8799;43.594;13.526;2023-05-10T11:04:18;21.20;99.90
17364;DHT22;8799;43.594;13.526;2023-05-10T11:06:47;21.20;99.90
17364;DHT22;8799;43.594;13.526;2023-05-10T11:09:15;21.20;99.90
17364;DHT22;8799;43.594;13.526;2023-05-10T11:11:52;21.20;99.90
17364;DHT22;8799;43.594;13.526;2023-05-10T11:14:22;21.10;99.90
17364;DHT22;8799;43.594;13.526;2023-05-10T11:16:50;21.20;99.90
17364;DHT22;8799;43.594;13.526;2023-05-10T11:19:19;21.20;99.90
17364;DHT22;8799;43.594;13.526;2023-05-10T11:21:50;21.20;99.90
17364;DHT22;8799;43.594;13.526;2023-05-10T11:24:19;21.20;99.90
17364;DHT22;8799;43.594;13.526;2023-05-10T11:26:50;21.20;99.90
17364;DHT22;8799;43.594;13.526;2023-05-10T11:29:19;21.20;99.90
17364;DHT22;8799;43.594;13.526;2023-05-10T11:31:49;21.20;99.90
17364;DHT22;8799;43.594;13.526;2023-05-10T11:34:28;21.20;99.90
17364;DHT22;8799;43.594;13.526;2023-05-10T11:36:57;21.20;99.90
17364;DHT22;8799;43.594;13.526;2023-05-10T11:39:26;21.10;99.90
17364;DHT22;8799;43.594;13.526;2023-05-10T11:41:55;21.20;99.90
17364;DHT22;8799;43.594;13.526;2023-05-10T11:44:23;21.20;99.90
17364;DHT22;8799;43.594;13.526;2023-05-10T11:46:52;21.20;99.90
17364;DHT22;8799;43.594;13.526;2023-05-10T11:49:21;21.10;99.90
17364;DHT22;8799;43.594;13.526;2023-05-10T11:51:50;21.20;99.90
17364;DHT22;8799;43.594;13.526;2023-05-10T11:54:18;21.20;99.90
17364;DHT22;8799;43.594;13.526;2023-05-10T11:56:46;21.20;99.90
17364;DHT22;8799;43.594;13.526;2023-05-10T11:59:14;21.20;99.90
17364;DHT22;8799;43.594;13.526;2023-05-10T12:01:42;21.20;99.90
17364;DHT22;8799;43.594;13.526;2023-05-10T12:04:12;21.20;99.90
17364;DHT22;8799;43.594;13.526;2023-05-10T12:06:41;21.20;99.90
17364;DHT22;8799;43.594;13.526;2023-05-10T12:09:09;21.20;99.90
17364;DHT22;8799;43.594;13.526;2023-05-10T12:11:38;21.20;99.90
17364;DHT22;8799;43.594;13.526;2023-05-10T12:14:08;21.20;99.90
17364;DHT22;8799;43.594;13.526;2023-05-10T12:16:36;21.20;99.90
17364;DHT22;8799;43.594;13.526;2023-05-10T12:19:04;21.20;99.90
17364;DHT22;8799;43.594;13.526;2023-05-10T12:21:34;21.20;99.90
17364;DHT22;8799;43.594;13.526;2023-05-10T12:24:03;21.20;99.90
17364;DHT22;8799;43.594;13.526;2023-05-10T12:26:32;21.20;99.90
17364;DHT22;8799;43.594;13.526;2023-05-10T12:29:13;21.20;99.90
17364;DHT22;8799;43.594;13.526;2023-05-10T12:31:54;21.20;99.90
17364;DHT22;8799;43.594;13.526;2023-05-10T12:34:36;21.20;99.90
17364;DHT22;8799;43.594;13.526;2023-05-10T12:37:07;21.20;99.90
17364;DHT22;8799;43.594;13.526;2023-05-10T12:39:39;21.20;99.90
17364;DHT22;8799;43.594;13.526;2023-05-10T12:42:10;21.20;99.90
17364;DHT22;8799;43.594;13.526;2023-05-10T12:44:38;21.20;99.90
17364;DHT22;8799;43.594;13.526;2023-05-10T12:47:07;21.20;99.90
17364;DHT22;8799;43.594;13.526;2023-05-10T12:49:35;21.20;99.90
17364;DHT22;8799;43.594;13.526;2023-05-10T12:52:02;21.10;99.90
17364;DHT22;8799;43.594;13.526;2023-05-10T12:54:31;21.20;99.90
17364;DHT22;8799;43.594;13.526;2023-05-10T12:57:02;21.10;99.90
17364;DHT22;8799;43.594;13.526;2023-05-10T12:59:33;21.10;99.90
17364;DHT22;8799;43.594;13.526;2023-05-10T13:02:02;21.00;99.90
17364;DHT22;8799;43.594;13.526;2023-05-10T13:04:30;21.10;99.90
17364;DHT22;8799;43.594;13.526;2023-05-10T13:06:58;21.10;99.90
17364;DHT22;8799;43.594;13.526;2023-05-10T13:09:26;21.10;99.90
17364;DHT22;8799;43.594;13.526;2023-05-10T13:11:56;21.10;99.90
17364;DHT22;8799;43.594;13.526;2023-05-10T13:14:24;21.10;99.90
17364;DHT22;8799;43.594;13.526;2023-05-10T13:16:53;21.10;99.90
17364;DHT22;8799;43.594;13.526;2023-05-10T13:19:21;21.00;99.90
17364;DHT22;8799;43.594;13.526;2023-05-10T13:21:49;21.00;99.90
17364;DHT22;8799;43.594;13.526;2023-05-10T13:24:17;21.00;99.90
17364;DHT22;8799;43.594;13.526;2023-05-10T13:26:45;21.00;99.90
17364;DHT22;8799;43.594;13.526;2023-05-10T13:29:15;21.00;99.90
17364;DHT22;8799;43.594;13.526;2023-05-10T13:31:45;21.00;99.90
17364;DHT22;8799;43.594;13.526;2023-05-10T13:34:13;21.00;99.90
17364;DHT22;8799;43.594;13.526;2023-05-10T13:36:41;20.90;99.90
17364;DHT22;8799;43.594;13.526;2023-05-10T13:39:09;20.90;99.90
17364;DHT22;8799;43.594;13.526;2023-05-10T13:41:36;20.90;99.90
17364;DHT22;8799;43.594;13.526;2023-05-10T13:44:05;20.90;99.90
17364;DHT22;8799;43.594;13.526;2023-05-10T13:46:35;20.90;99.90
17364;DHT22;8799;43.594;13.526;2023-05-10T13:49:03;20.90;99.90
17364;DHT22;8799;43.594;13.526;2023-05-10T13:51:31;20.90;99.90
17364;DHT22;8799;43.594;13.526;2023-05-10T13:53:59;20.90;99.90
17364;DHT22;8799;43.594;13.526;2023-05-10T13:56:26;20.90;99.90
17364;DHT22;8799;43.594;13.526;2023-05-10T13:58:56;20.80;99.90
17364;DHT22;8799;43.594;13.526;2023-05-10T14:01:24;20.80;99.90
17364;DHT22;8799;43.594;13.526;2023-05-10T14:03:53;20.80;99.90
17364;DHT22;8799;43.594;13.526;2023-05-10T14:06:21;20.80;99.90
17364;DHT22;8799;43.594;13.526;2023-05-10T14:08:50;20.80;99.90
17364;DHT22;8799;43.594;13.526;2023-05-10T14:11:17;20.80;99.90
17364;DHT22;8799;43.594;13.526;2023-05-10T14:13:46;20.80;99.90
17364;DHT22;8799;43.594;13.526;2023-05-10T14:16:15;20.80;99.90
17364;DHT22;8799;43.594;13.526;2023-05-10T14:18:43;20.80;99.90
17364;DHT22;8799;43.594;13.526;2023-05-10T14:21:12;20.80;99.90
17364;DHT22;8799;43.594;13.526;2023-05-10T14:23:41;20.80;99.90
17364;DHT22;8799;43.594;13.526;2023-05-10T14:26:08;20.80;99.90
17364;DHT22;8799;43.594;13.526;2023-05-10T14:28:36;20.80;99.90
17364;DHT22;8799;43.594;13.526;2023-05-10T14:31:04;20.70;99.90
17364;DHT22;8799;43.594;13.526;2023-05-10T14:33:32;20.70;99.90
17364;DHT22;8799;43.594;13.526;2023-05-10T14:36:00;20.70;99.90
17364;DHT22;8799;43.594;13.526;2023-05-10T14:38:31;20.70;99.90
17364;DHT22;8799;43.594;13.526;2023-05-10T14:40:59;20.70;99.90
17364;DHT22;8799;43.594;13.526;2023-05-10T14:43:26;20.70;99.90
17364;DHT22;8799;43.594;13.526;2023-05-10T14:45:54;20.70;99.90
17364;DHT22;8799;43.594;13.526;2023-05-10T14:48:22;20.70;99.90
17364;DHT22;8799;43.594;13.526;2023-05-10T14:50:50;20.70;99.90
17364;DHT22;8799;43.594;13.526;2023-05-10T14:53:18;20.70;99.90
17364;DHT22;8799;43.594;13.526;2023-05-10T14:55:47;20.70;99.90
17364;DHT22;8799;43.594;13.526;2023-05-10T14:58:15;20.70;99.90
17364;DHT22;8799;43.594;13.526;2023-05-10T15:00:43;20.70;99.90
17364;DHT22;8799;43.594;13.526;2023-05-10T15:03:11;20.70;99.90
17364;DHT22;8799;43.594;13.526;2023-05-10T15:05:40;20.70;99.90
17364;DHT22;8799;43.594;13.526;2023-05-10T15:08:08;20.70;99.90
17364;DHT22;8799;43.594;13.526;2023-05-10T15:10:38;20.70;99.90
17364;DHT22;8799;43.594;13.526;2023-05-10T15:13:08;20.70;99.90
17364;DHT22;8799;43.594;13.526;2023-05-10T15:15:36;20.70;99.90
17364;DHT22;8799;43.594;13.526;2023-05-10T15:18:05;20.70;99.90
17364;DHT22;8799;43.594;13.526;2023-05-10T15:20:33;20.70;99.90
17364;DHT22;8799;43.594;13.526;2023-05-10T15:23:01;20.70;99.90
17364;DHT22;8799;43.594;13.526;2023-05-10T15:25:29;20.70;99.90
17364;DHT22;8799;43.594;13.526;2023-05-10T15:27:56;20.70;99.90
17364;DHT22;8799;43.594;13.526;2023-05-10T15:30:27;20.70;99.90
17364;DHT22;8799;43.594;13.526;2023-05-10T15:32:55;20.70;99.90
17364;DHT22;8799;43.594;13.526;2023-05-10T15:35:24;20.70;99.90
17364;DHT22;8799;43.594;13.526;2023-05-10T15:37:53;20.70;99.90
17364;DHT22;8799;43.594;13.526;2023-05-10T15:40:21;20.60;99.90
17364;DHT22;8799;43.594;13.526;2023-05-10T15:42:48;20.70;99.90
17364;DHT22;8799;43.594;13.526;2023-05-10T15:45:16;20.60;99.90